RYR55RV EBCI-LMML
Flight info
| Callsign | RYR55RV |
|---|---|
| Flight time | N/A |
| Altitude | 37000 |
| Route | RITAX UT27 ROUSY DCT GTQ DCT POGOL DCT LASAT DCT DEVDI DCT RIPUS DCT GERSA DCT SOSON DCT ODINA DCT KALIK DCT EMBOS DCT MAREL DCT ROSKI DCT MEDAL DCT MARON/N0342F190 L12 GZO |
| Aircraft | B38M/M-SDE2E3GIM1RWY/HB1 |
Departure
| Time | 2026-05-08 08:07 |
|---|---|
| Airport | Brussels South Charleroi Airport (EBCI) |
Arrival
| Time | N/A |
|---|---|
| Airport | Malta International Airport (LMML) |
| Time | Latitude | Longitude | Altitude | Speed | Heading |
|---|---|---|---|---|---|
| 2026-05-08 07:34 | 50.46923 | 4.47290 | 627 ft | 0 kts | 335° |
| 2026-05-08 08:00 | 50.46913 | 4.47297 | 625 ft | 2 kts | 335° |
| 2026-05-08 08:00 | 50.46898 | 4.47308 | 625 ft | 2 kts | 336° |
| 2026-05-08 08:01 | 50.46882 | 4.47316 | 629 ft | 2 kts | 12° |
| 2026-05-08 08:01 | 50.46870 | 4.47301 | 625 ft | 2 kts | 58° |
| 2026-05-08 08:01 | 50.46863 | 4.47282 | 619 ft | 1 kts | 64° |
| 2026-05-08 08:01 | 50.46862 | 4.47280 | 619 ft | 0 kts | 64° |
| 2026-05-08 08:05 | 50.46876 | 4.47325 | 627 ft | 11 kts | 65° |
| 2026-05-08 08:05 | 50.46918 | 4.47471 | 624 ft | 17 kts | 65° |
| 2026-05-08 08:05 | 50.46912 | 4.47612 | 620 ft | 15 kts | 147° |
| 2026-05-08 08:06 | 50.46827 | 4.47676 | 619 ft | 14 kts | 155° |
| 2026-05-08 08:06 | 50.46739 | 4.47739 | 622 ft | 13 kts | 155° |
| 2026-05-08 08:06 | 50.46696 | 4.47723 | 625 ft | 8 kts | 237° |
| 2026-05-08 08:06 | 50.46664 | 4.47619 | 625 ft | 18 kts | 245° |
| 2026-05-08 08:07 | 50.46504 | 4.47067 | 619 ft | 94 kts | 245° |
| 2026-05-08 08:07 | 50.46130 | 4.45783 | 626 ft | 161 kts | 245° |
| 2026-05-08 08:07 | 50.45644 | 4.44067 | 1191 ft | 174 kts | 245° |
| 2026-05-08 08:07 | 50.45149 | 4.42322 | 2140 ft | 179 kts | 245° |
| 2026-05-08 08:08 | 50.44613 | 4.40477 | 2810 ft | 194 kts | 245° |
| 2026-05-08 08:08 | 50.44031 | 4.38485 | 3449 ft | 208 kts | 245° |
| 2026-05-08 08:08 | 50.43431 | 4.36366 | 4198 ft | 217 kts | 246° |
| 2026-05-08 08:08 | 50.42810 | 4.34130 | 4953 ft | 231 kts | 245° |
| 2026-05-08 08:09 | 50.42142 | 4.31771 | 5707 ft | 240 kts | 245° |
| 2026-05-08 08:09 | 50.41440 | 4.29344 | 6589 ft | 247 kts | 244° |
| 2026-05-08 08:09 | 50.40832 | 4.26773 | 7361 ft | 258 kts | 260° |
| 2026-05-08 08:09 | 50.41006 | 4.23967 | 8104 ft | 268 kts | 292° |
| 2026-05-08 08:10 | 50.42103 | 4.21592 | 8902 ft | 275 kts | 320° |
| 2026-05-08 08:10 | 50.43716 | 4.19950 | 9793 ft | 279 kts | 332° |
| 2026-05-08 08:10 | 50.45480 | 4.18615 | 10581 ft | 284 kts | 336° |
| 2026-05-08 08:10 | 50.47444 | 4.17879 | 11113 ft | 301 kts | 359° |
| 2026-05-08 08:11 | 50.49560 | 4.18452 | 11541 ft | 320 kts | 21° |
| 2026-05-08 08:11 | 50.51553 | 4.20053 | 12060 ft | 333 kts | 28° |
| 2026-05-08 08:11 | 50.53551 | 4.21746 | 12687 ft | 342 kts | 28° |
| 2026-05-08 08:11 | 50.55539 | 4.23452 | 13541 ft | 344 kts | 28° |
| 2026-05-08 08:12 | 50.56254 | 4.24068 | 13802 ft | 346 kts | 28° |
| 2026-05-08 08:12 | 50.56427 | 4.24217 | 13865 ft | 346 kts | 28° |
| 2026-05-08 08:12 | 50.58647 | 4.26142 | 14553 ft | 352 kts | 28° |
| 2026-05-08 08:12 | 50.60804 | 4.28016 | 15310 ft | 355 kts | 28° |
| 2026-05-08 08:13 | 50.62905 | 4.30119 | 16008 ft | 359 kts | 41° |
| 2026-05-08 08:13 | 50.64468 | 4.33106 | 16724 ft | 362 kts | 60° |
| 2026-05-08 08:13 | 50.65612 | 4.36717 | 17397 ft | 366 kts | 65° |
| 2026-05-08 08:13 | 50.66702 | 4.40320 | 18083 ft | 370 kts | 65° |
| 2026-05-08 08:14 | 50.67801 | 4.44024 | 18705 ft | 373 kts | 65° |
| 2026-05-08 08:14 | 50.68893 | 4.47752 | 19280 ft | 377 kts | 66° |
| 2026-05-08 08:14 | 50.69987 | 4.51518 | 19856 ft | 380 kts | 66° |
| 2026-05-08 08:14 | 50.71068 | 4.55344 | 20418 ft | 383 kts | 70° |
| 2026-05-08 08:15 | 50.71586 | 4.59455 | 20986 ft | 383 kts | 90° |
| 2026-05-08 08:15 | 50.71253 | 4.63630 | 21496 ft | 384 kts | 107° |
| 2026-05-08 08:15 | 50.70524 | 4.67710 | 22027 ft | 388 kts | 107° |
| 2026-05-08 08:15 | 50.69763 | 4.71813 | 22567 ft | 391 kts | 108° |
| 2026-05-08 08:16 | 50.68978 | 4.75914 | 23117 ft | 394 kts | 108° |
| 2026-05-08 08:16 | 50.68165 | 4.80074 | 23644 ft | 397 kts | 109° |
| 2026-05-08 08:16 | 50.67350 | 4.84196 | 24079 ft | 400 kts | 109° |
| 2026-05-08 08:16 | 50.66428 | 4.88321 | 24509 ft | 401 kts | 118° |
| 2026-05-08 08:17 | 50.64838 | 4.91885 | 24948 ft | 398 kts | 135° |
| 2026-05-08 08:17 | 50.62905 | 4.95047 | 25317 ft | 402 kts | 136° |
| 2026-05-08 08:17 | 50.60953 | 4.98216 | 25742 ft | 404 kts | 136° |
| 2026-05-08 08:17 | 50.58976 | 5.01380 | 26169 ft | 407 kts | 136° |
| 2026-05-08 08:18 | 50.56974 | 5.04550 | 26572 ft | 409 kts | 137° |
| 2026-05-08 08:18 | 50.54955 | 5.07728 | 26972 ft | 412 kts | 137° |
| 2026-05-08 08:18 | 50.52923 | 5.10919 | 27364 ft | 414 kts | 137° |
| 2026-05-08 08:18 | 50.50874 | 5.14128 | 27752 ft | 416 kts | 137° |
| 2026-05-08 08:19 | 50.48817 | 5.17347 | 28129 ft | 419 kts | 137° |
| 2026-05-08 08:19 | 50.46742 | 5.20589 | 28502 ft | 421 kts | 137° |
| 2026-05-08 08:19 | 50.44658 | 5.23840 | 28873 ft | 424 kts | 137° |
| 2026-05-08 08:19 | 50.42559 | 5.27113 | 29234 ft | 426 kts | 137° |
| 2026-05-08 08:20 | 50.40479 | 5.30350 | 29582 ft | 428 kts | 137° |
| 2026-05-08 08:20 | 50.38356 | 5.33649 | 29927 ft | 431 kts | 137° |
| 2026-05-08 08:20 | 50.36220 | 5.36964 | 30252 ft | 433 kts | 137° |
| 2026-05-08 08:20 | 50.34074 | 5.40291 | 30530 ft | 435 kts | 137° |
| 2026-05-08 08:21 | 50.31914 | 5.43634 | 30812 ft | 438 kts | 137° |
| 2026-05-08 08:21 | 50.29747 | 5.46985 | 31085 ft | 440 kts | 138° |
| 2026-05-08 08:21 | 50.27566 | 5.50352 | 31365 ft | 442 kts | 138° |
| 2026-05-08 08:21 | 50.25368 | 5.53741 | 31636 ft | 444 kts | 138° |
| 2026-05-08 08:22 | 50.23164 | 5.57134 | 31910 ft | 446 kts | 138° |
| 2026-05-08 08:22 | 50.20951 | 5.60536 | 32172 ft | 448 kts | 138° |
| 2026-05-08 08:22 | 50.18726 | 5.63951 | 32437 ft | 450 kts | 138° |
| 2026-05-08 08:22 | 50.16491 | 5.67380 | 32698 ft | 452 kts | 138° |
| 2026-05-08 08:23 | 50.14267 | 5.70785 | 32988 ft | 453 kts | 139° |
| 2026-05-08 08:23 | 50.12016 | 5.74229 | 33351 ft | 452 kts | 139° |
| 2026-05-08 08:23 | 50.09776 | 5.77651 | 33717 ft | 451 kts | 139° |
| 2026-05-08 08:23 | 50.07415 | 5.80828 | 34036 ft | 445 kts | 151° |
| 2026-05-08 08:24 | 50.04736 | 5.83158 | 34353 ft | 442 kts | 154° |
| 2026-05-08 08:24 | 50.02050 | 5.85522 | 34521 ft | 444 kts | 154° |
| 2026-05-08 08:24 | 49.99349 | 5.87864 | 34746 ft | 445 kts | 154° |
| 2026-05-08 08:24 | 49.96634 | 5.90189 | 35000 ft | 445 kts | 154° |
| 2026-05-08 08:25 | 49.93913 | 5.92506 | 35241 ft | 446 kts | 154° |
| 2026-05-08 08:25 | 49.91190 | 5.94819 | 35483 ft | 446 kts | 154° |
| 2026-05-08 08:25 | 49.88459 | 5.97133 | 35716 ft | 446 kts | 154° |
| 2026-05-08 08:25 | 49.85764 | 5.99414 | 35938 ft | 447 kts | 154° |
| 2026-05-08 08:26 | 49.83030 | 6.01726 | 36168 ft | 447 kts | 154° |
| 2026-05-08 08:26 | 49.80301 | 6.04029 | 36382 ft | 448 kts | 154° |
| 2026-05-08 08:26 | 49.77562 | 6.06339 | 36605 ft | 448 kts | 154° |
| 2026-05-08 08:26 | 49.74811 | 6.08656 | 36816 ft | 448 kts | 154° |
| 2026-05-08 08:27 | 49.72073 | 6.10958 | 37012 ft | 449 kts | 154° |
| 2026-05-08 08:27 | 49.67497 | 6.14800 | 37095 ft | 448 kts | 154° |
| 2026-05-08 08:28 | 49.61128 | 6.20133 | 37104 ft | 448 kts | 154° |
| 2026-05-08 08:28 | 49.56538 | 6.23967 | 37102 ft | 447 kts | 154° |
| 2026-05-08 08:29 | 49.51094 | 6.28503 | 37098 ft | 447 kts | 155° |
| 2026-05-08 08:29 | 49.45615 | 6.33057 | 37092 ft | 447 kts | 155° |
| 2026-05-08 08:30 | 49.40133 | 6.37601 | 37087 ft | 447 kts | 155° |
| 2026-05-08 08:30 | 49.31949 | 6.44364 | 37079 ft | 447 kts | 155° |
| 2026-05-08 08:31 | 49.26464 | 6.48882 | 37084 ft | 447 kts | 155° |
| 2026-05-08 08:31 | 49.20973 | 6.53393 | 37084 ft | 447 kts | 155° |
| 2026-05-08 08:32 | 49.15521 | 6.57862 | 37083 ft | 447 kts | 155° |
| 2026-05-08 08:32 | 49.10039 | 6.62343 | 37087 ft | 447 kts | 155° |
| 2026-05-08 08:33 | 49.04554 | 6.66818 | 37085 ft | 447 kts | 155° |
| 2026-05-08 08:33 | 48.99058 | 6.71263 | 37079 ft | 446 kts | 158° |
| 2026-05-08 08:34 | 48.93430 | 6.75246 | 37082 ft | 446 kts | 158° |
| 2026-05-08 08:34 | 48.87798 | 6.79272 | 37082 ft | 445 kts | 158° |
| 2026-05-08 08:35 | 48.82233 | 6.83252 | 37079 ft | 445 kts | 158° |
| 2026-05-08 08:35 | 48.76621 | 6.87256 | 37084 ft | 446 kts | 158° |
| 2026-05-08 08:36 | 48.71007 | 6.91249 | 37076 ft | 446 kts | 158° |
| 2026-05-08 08:36 | 48.65382 | 6.95241 | 37078 ft | 446 kts | 158° |
| 2026-05-08 08:37 | 48.59761 | 6.99221 | 37073 ft | 446 kts | 158° |
| 2026-05-08 08:37 | 48.54174 | 7.03167 | 37068 ft | 446 kts | 158° |
| 2026-05-08 08:38 | 48.48544 | 7.07133 | 37069 ft | 446 kts | 158° |
| 2026-05-08 08:38 | 48.42923 | 7.11083 | 37071 ft | 446 kts | 158° |
| 2026-05-08 08:39 | 48.37295 | 7.15029 | 37072 ft | 446 kts | 158° |
| 2026-05-08 08:39 | 48.31661 | 7.18969 | 37069 ft | 446 kts | 158° |
| 2026-05-08 08:40 | 48.26022 | 7.22904 | 37077 ft | 447 kts | 158° |
| 2026-05-08 08:40 | 48.20379 | 7.26830 | 37080 ft | 447 kts | 158° |
| 2026-05-08 08:41 | 48.14738 | 7.30746 | 37079 ft | 447 kts | 158° |
| 2026-05-08 08:41 | 48.09100 | 7.34651 | 37075 ft | 446 kts | 158° |
| 2026-05-08 08:42 | 48.03496 | 7.38522 | 37074 ft | 447 kts | 158° |
| 2026-05-08 08:42 | 47.97854 | 7.42411 | 37074 ft | 447 kts | 158° |
| 2026-05-08 08:43 | 47.92207 | 7.46293 | 37072 ft | 447 kts | 158° |
| 2026-05-08 08:43 | 47.86846 | 7.49970 | 37070 ft | 447 kts | 158° |
| 2026-05-08 08:44 | 47.81203 | 7.53832 | 37072 ft | 447 kts | 158° |
| 2026-05-08 08:44 | 47.75542 | 7.57697 | 37072 ft | 447 kts | 158° |
| 2026-05-08 08:45 | 47.69890 | 7.61545 | 37079 ft | 447 kts | 158° |
| 2026-05-08 08:45 | 47.64266 | 7.65367 | 37074 ft | 447 kts | 159° |
| 2026-05-08 08:46 | 47.58611 | 7.69199 | 37074 ft | 447 kts | 159° |
| 2026-05-08 08:46 | 47.52949 | 7.73028 | 37066 ft | 447 kts | 159° |
| 2026-05-08 08:47 | 47.47282 | 7.76850 | 37075 ft | 447 kts | 159° |
| 2026-05-08 08:47 | 47.41623 | 7.80659 | 37066 ft | 447 kts | 159° |
| 2026-05-08 08:48 | 47.35985 | 7.84444 | 37060 ft | 447 kts | 159° |
| 2026-05-08 08:48 | 47.30323 | 7.88236 | 37063 ft | 446 kts | 159° |
| 2026-05-08 08:49 | 47.24663 | 7.92018 | 37067 ft | 446 kts | 159° |
| 2026-05-08 08:49 | 47.18996 | 7.95796 | 37066 ft | 446 kts | 159° |
| 2026-05-08 08:50 | 47.13366 | 7.99540 | 37067 ft | 446 kts | 159° |
| 2026-05-08 08:50 | 47.07707 | 8.03295 | 37065 ft | 446 kts | 159° |
| 2026-05-08 08:51 | 47.02044 | 8.07044 | 37062 ft | 446 kts | 159° |
| 2026-05-08 08:51 | 46.96389 | 8.10779 | 37070 ft | 446 kts | 159° |
| 2026-05-08 08:52 | 46.90720 | 8.14513 | 37068 ft | 446 kts | 160° |
| 2026-05-08 08:52 | 46.85089 | 8.18216 | 37071 ft | 446 kts | 160° |
| 2026-05-08 08:53 | 46.79422 | 8.21932 | 37085 ft | 447 kts | 160° |
| 2026-05-08 08:53 | 46.73759 | 8.25636 | 37072 ft | 446 kts | 160° |
| 2026-05-08 08:54 | 46.68098 | 8.29333 | 37076 ft | 445 kts | 160° |
| 2026-05-08 08:54 | 46.62437 | 8.33020 | 37072 ft | 445 kts | 160° |
| 2026-05-08 08:55 | 46.56786 | 8.36692 | 37076 ft | 444 kts | 160° |
| 2026-05-08 08:55 | 46.51165 | 8.40336 | 37075 ft | 444 kts | 160° |
| 2026-05-08 08:56 | 46.45523 | 8.43985 | 37081 ft | 443 kts | 160° |
| 2026-05-08 08:56 | 46.39898 | 8.47616 | 37078 ft | 441 kts | 160° |
| 2026-05-08 08:57 | 46.34323 | 8.51206 | 37093 ft | 441 kts | 160° |
| 2026-05-08 08:57 | 46.28702 | 8.54820 | 37069 ft | 441 kts | 160° |
| 2026-05-08 08:58 | 46.23085 | 8.58423 | 37072 ft | 442 kts | 160° |
| 2026-05-08 08:58 | 46.17459 | 8.62024 | 37096 ft | 442 kts | 160° |
| 2026-05-08 08:59 | 46.11849 | 8.65605 | 37099 ft | 440 kts | 160° |
| 2026-05-08 08:59 | 46.06396 | 8.69649 | 37090 ft | 442 kts | 157° |
| 2026-05-08 09:00 | 46.00954 | 8.73717 | 37073 ft | 442 kts | 157° |
| 2026-05-08 09:00 | 45.95896 | 8.77473 | 37071 ft | 442 kts | 157° |
| 2026-05-08 09:01 | 45.90460 | 8.81502 | 37070 ft | 441 kts | 157° |
| 2026-05-08 09:01 | 45.85009 | 8.85531 | 37082 ft | 440 kts | 157° |
| 2026-05-08 09:02 | 45.79585 | 8.89532 | 37072 ft | 441 kts | 157° |
| 2026-05-08 09:02 | 45.74133 | 8.93546 | 37074 ft | 441 kts | 158° |
| 2026-05-08 09:03 | 45.68674 | 8.97555 | 37066 ft | 441 kts | 158° |
| 2026-05-08 09:03 | 45.63212 | 9.01558 | 37069 ft | 441 kts | 158° |
| 2026-05-08 09:04 | 45.57747 | 9.05553 | 37076 ft | 441 kts | 158° |
| 2026-05-08 09:04 | 45.52321 | 9.09512 | 37077 ft | 441 kts | 158° |
| 2026-05-08 09:05 | 45.46862 | 9.13486 | 37070 ft | 440 kts | 158° |
| 2026-05-08 09:05 | 45.41401 | 9.17452 | 37071 ft | 440 kts | 158° |
| 2026-05-08 09:06 | 45.35936 | 9.21414 | 37072 ft | 441 kts | 158° |
| 2026-05-08 09:06 | 45.30470 | 9.25367 | 37069 ft | 441 kts | 158° |
| 2026-05-08 09:07 | 45.24990 | 9.29321 | 37068 ft | 441 kts | 158° |
| 2026-05-08 09:07 | 45.19554 | 9.33236 | 37065 ft | 441 kts | 158° |
| 2026-05-08 09:08 | 45.14092 | 9.37161 | 37056 ft | 440 kts | 158° |
| 2026-05-08 09:08 | 45.08607 | 9.41093 | 37060 ft | 440 kts | 158° |
| 2026-05-08 09:09 | 45.03145 | 9.45000 | 37059 ft | 440 kts | 158° |
| 2026-05-08 09:09 | 44.97678 | 9.48903 | 37067 ft | 440 kts | 158° |
| 2026-05-08 09:10 | 44.92218 | 9.52793 | 37065 ft | 440 kts | 158° |
| 2026-05-08 09:10 | 44.86756 | 9.56675 | 37070 ft | 439 kts | 158° |
| 2026-05-08 09:11 | 44.81325 | 9.60528 | 37064 ft | 439 kts | 158° |
| 2026-05-08 09:11 | 44.75867 | 9.64391 | 37067 ft | 439 kts | 158° |
| 2026-05-08 09:12 | 44.70405 | 9.68250 | 37050 ft | 438 kts | 158° |
| 2026-05-08 09:12 | 44.65867 | 9.71448 | 37051 ft | 438 kts | 158° |
| 2026-05-08 09:13 | 44.60416 | 9.75284 | 37045 ft | 439 kts | 158° |
| 2026-05-08 09:13 | 44.54072 | 9.79739 | 37035 ft | 438 kts | 158° |
| 2026-05-08 09:14 | 44.49533 | 9.82920 | 37035 ft | 439 kts | 158° |
| 2026-05-08 09:14 | 44.44065 | 9.86727 | 37049 ft | 439 kts | 158° |
| 2026-05-08 09:15 | 44.38594 | 9.90525 | 37035 ft | 439 kts | 158° |
| 2026-05-08 09:15 | 44.33122 | 9.94318 | 37017 ft | 439 kts | 158° |
| 2026-05-08 09:16 | 44.27643 | 9.98107 | 37004 ft | 439 kts | 158° |
| 2026-05-08 09:16 | 44.22159 | 10.01892 | 36993 ft | 439 kts | 159° |
| 2026-05-08 09:17 | 44.16680 | 10.05666 | 36989 ft | 440 kts | 159° |
| 2026-05-08 09:17 | 44.11176 | 10.09450 | 36994 ft | 441 kts | 159° |
| 2026-05-08 09:18 | 44.05680 | 10.13218 | 36988 ft | 440 kts | 159° |
| 2026-05-08 09:18 | 44.00227 | 10.16951 | 36998 ft | 439 kts | 159° |
| 2026-05-08 09:19 | 43.94726 | 10.20709 | 36998 ft | 439 kts | 159° |
| 2026-05-08 09:19 | 43.89235 | 10.24451 | 36983 ft | 439 kts | 159° |
| 2026-05-08 09:20 | 43.83759 | 10.28173 | 36974 ft | 439 kts | 159° |
| 2026-05-08 09:20 | 43.78281 | 10.31847 | 36966 ft | 439 kts | 159° |
| 2026-05-08 09:21 | 43.72776 | 10.35536 | 36959 ft | 439 kts | 159° |
| 2026-05-08 09:23 | 43.53558 | 10.48358 | 36962 ft | 439 kts | 159° |
| 2026-05-08 09:23 | 43.48055 | 10.52012 | 36966 ft | 439 kts | 159° |
| 2026-05-08 09:24 | 43.42545 | 10.55663 | 36961 ft | 439 kts | 159° |
| 2026-05-08 09:24 | 43.37020 | 10.59317 | 36960 ft | 440 kts | 159° |
| 2026-05-08 09:25 | 43.31496 | 10.62964 | 36962 ft | 440 kts | 159° |
| 2026-05-08 09:25 | 43.25972 | 10.66591 | 36961 ft | 440 kts | 159° |
| 2026-05-08 09:26 | 43.20429 | 10.70216 | 36961 ft | 441 kts | 159° |
| 2026-05-08 09:26 | 43.14921 | 10.73811 | 36965 ft | 441 kts | 159° |
| 2026-05-08 09:27 | 43.09367 | 10.77429 | 36963 ft | 442 kts | 159° |
| 2026-05-08 09:27 | 43.03812 | 10.81041 | 36951 ft | 442 kts | 159° |
| 2026-05-08 09:28 | 42.98249 | 10.84649 | 36959 ft | 443 kts | 159° |
| 2026-05-08 09:28 | 42.92675 | 10.88259 | 36947 ft | 443 kts | 159° |
| 2026-05-08 09:29 | 42.87098 | 10.91862 | 36939 ft | 444 kts | 159° |
| 2026-05-08 09:29 | 42.81539 | 10.95448 | 36939 ft | 444 kts | 159° |
| 2026-05-08 09:30 | 42.75942 | 10.99051 | 36939 ft | 445 kts | 159° |
| 2026-05-08 09:30 | 42.70324 | 11.02582 | 36939 ft | 442 kts | 163° |
| 2026-05-08 09:31 | 42.64616 | 11.05623 | 36938 ft | 443 kts | 163° |
| 2026-05-08 09:31 | 42.58879 | 11.08739 | 36934 ft | 444 kts | 162° |
| 2026-05-08 09:32 | 42.53138 | 11.11860 | 36972 ft | 444 kts | 162° |
| 2026-05-08 09:32 | 42.47390 | 11.14979 | 36977 ft | 445 kts | 163° |
| 2026-05-08 09:33 | 42.41639 | 11.18093 | 36977 ft | 445 kts | 163° |
| 2026-05-08 09:33 | 42.35912 | 11.21188 | 36976 ft | 446 kts | 163° |
| 2026-05-08 09:34 | 42.30126 | 11.24309 | 36974 ft | 447 kts | 163° |
| 2026-05-08 09:34 | 42.24335 | 11.27427 | 36975 ft | 448 kts | 163° |
| 2026-05-08 09:35 | 42.18541 | 11.30539 | 36971 ft | 448 kts | 163° |
| 2026-05-08 09:35 | 42.12744 | 11.33648 | 36969 ft | 449 kts | 163° |
| 2026-05-08 09:36 | 42.06928 | 11.36762 | 36965 ft | 450 kts | 163° |
| 2026-05-08 09:36 | 42.01111 | 11.39671 | 36966 ft | 449 kts | 164° |
| 2026-05-08 09:37 | 41.95239 | 11.42589 | 36963 ft | 450 kts | 164° |
| 2026-05-08 09:37 | 41.89347 | 11.45515 | 36968 ft | 452 kts | 164° |
| 2026-05-08 09:38 | 41.83433 | 11.48448 | 36968 ft | 453 kts | 165° |
| 2026-05-08 09:38 | 41.77535 | 11.51367 | 36968 ft | 454 kts | 165° |
| 2026-05-08 09:39 | 41.71600 | 11.54298 | 36963 ft | 455 kts | 165° |
| 2026-05-08 09:39 | 41.65649 | 11.57232 | 36971 ft | 456 kts | 165° |
| 2026-05-08 09:40 | 41.59678 | 11.60169 | 36969 ft | 457 kts | 165° |
| 2026-05-08 09:40 | 41.53698 | 11.63106 | 36970 ft | 458 kts | 165° |
| 2026-05-08 09:41 | 41.47767 | 11.66012 | 36974 ft | 458 kts | 165° |
| 2026-05-08 09:41 | 41.41741 | 11.68958 | 36970 ft | 460 kts | 165° |
| 2026-05-08 09:42 | 41.35712 | 11.71901 | 36971 ft | 462 kts | 165° |
| 2026-05-08 09:42 | 41.29659 | 11.74850 | 36973 ft | 464 kts | 165° |
| 2026-05-08 09:43 | 41.23578 | 11.77807 | 36972 ft | 465 kts | 166° |
| 2026-05-08 09:43 | 41.17495 | 11.80758 | 36972 ft | 466 kts | 166° |
| 2026-05-08 09:44 | 41.11418 | 11.83701 | 36978 ft | 467 kts | 166° |
| 2026-05-08 09:44 | 41.05314 | 11.86651 | 36971 ft | 468 kts | 166° |
| 2026-05-08 09:45 | 40.99188 | 11.89605 | 36971 ft | 469 kts | 166° |
| 2026-05-08 09:45 | 40.93041 | 11.92564 | 36973 ft | 470 kts | 166° |
| 2026-05-08 09:46 | 40.86887 | 11.95521 | 36972 ft | 471 kts | 166° |
| 2026-05-08 09:46 | 40.80742 | 11.98467 | 36975 ft | 472 kts | 166° |
| 2026-05-08 09:47 | 40.74557 | 12.01427 | 36976 ft | 473 kts | 166° |
| 2026-05-08 09:47 | 40.68361 | 12.04386 | 36973 ft | 474 kts | 167° |
| 2026-05-08 09:48 | 40.62150 | 12.07346 | 36966 ft | 475 kts | 167° |
| 2026-05-08 09:48 | 40.55912 | 12.10313 | 36970 ft | 476 kts | 167° |
| 2026-05-08 09:49 | 40.49714 | 12.13256 | 36970 ft | 477 kts | 167° |
| 2026-05-08 09:49 | 40.43465 | 12.16217 | 36962 ft | 478 kts | 167° |
| 2026-05-08 09:50 | 40.37209 | 12.19175 | 36966 ft | 478 kts | 167° |
| 2026-05-08 09:50 | 40.30948 | 12.22129 | 36967 ft | 479 kts | 167° |
| 2026-05-08 09:51 | 40.24677 | 12.25083 | 36972 ft | 479 kts | 167° |
| 2026-05-08 09:51 | 40.18398 | 12.28035 | 36965 ft | 479 kts | 167° |
| 2026-05-08 09:52 | 40.12126 | 12.30978 | 36959 ft | 479 kts | 167° |
| 2026-05-08 09:52 | 40.05836 | 12.33922 | 36955 ft | 480 kts | 167° |
| 2026-05-08 09:53 | 39.99551 | 12.36859 | 36957 ft | 480 kts | 168° |
| 2026-05-08 09:53 | 39.93253 | 12.39797 | 36958 ft | 480 kts | 168° |
| 2026-05-08 09:54 | 39.86964 | 12.42724 | 36953 ft | 480 kts | 168° |
| 2026-05-08 09:54 | 39.80670 | 12.45648 | 36954 ft | 480 kts | 168° |
| 2026-05-08 09:55 | 39.74417 | 12.48548 | 36955 ft | 480 kts | 168° |
| 2026-05-08 09:55 | 39.68125 | 12.51459 | 36954 ft | 480 kts | 168° |
| 2026-05-08 09:56 | 39.61829 | 12.54367 | 36949 ft | 480 kts | 168° |
| 2026-05-08 09:56 | 39.55538 | 12.57267 | 36953 ft | 480 kts | 168° |
| 2026-05-08 09:57 | 39.46095 | 12.61610 | 36952 ft | 480 kts | 168° |
| 2026-05-08 09:57 | 39.39805 | 12.64496 | 36961 ft | 479 kts | 168° |
| 2026-05-08 09:58 | 39.33551 | 12.67360 | 36956 ft | 479 kts | 168° |
| 2026-05-08 09:58 | 39.27259 | 12.70235 | 36955 ft | 479 kts | 168° |
| 2026-05-08 09:59 | 39.20973 | 12.73102 | 36953 ft | 479 kts | 168° |
| 2026-05-08 09:59 | 39.14733 | 12.75943 | 36953 ft | 478 kts | 168° |
| 2026-05-08 10:00 | 39.08466 | 12.78791 | 36957 ft | 477 kts | 168° |
| 2026-05-08 10:00 | 39.02198 | 12.81634 | 36963 ft | 477 kts | 168° |
| 2026-05-08 10:01 | 38.97000 | 12.83988 | 36959 ft | 476 kts | 168° |
| 2026-05-08 10:01 | 38.90744 | 12.86816 | 36960 ft | 476 kts | 168° |
| 2026-05-08 10:02 | 38.84535 | 12.89617 | 36959 ft | 475 kts | 168° |
| 2026-05-08 10:02 | 38.78286 | 12.92431 | 36958 ft | 475 kts | 168° |
| 2026-05-08 10:03 | 38.72048 | 12.95235 | 36960 ft | 475 kts | 169° |
| 2026-05-08 10:03 | 38.65812 | 12.98033 | 36962 ft | 474 kts | 168° |
| 2026-05-08 10:04 | 38.59598 | 13.00816 | 36967 ft | 474 kts | 169° |
| 2026-05-08 10:04 | 38.53371 | 13.03599 | 36964 ft | 473 kts | 169° |
| 2026-05-08 10:05 | 38.47158 | 13.06371 | 36959 ft | 473 kts | 169° |
| 2026-05-08 10:05 | 38.40939 | 13.09141 | 36969 ft | 472 kts | 169° |
| 2026-05-08 10:06 | 38.34773 | 13.11883 | 36966 ft | 472 kts | 169° |
| 2026-05-08 10:06 | 38.28568 | 13.14636 | 36960 ft | 472 kts | 169° |
| 2026-05-08 10:07 | 38.22357 | 13.17387 | 36967 ft | 472 kts | 169° |
| 2026-05-08 10:07 | 38.16155 | 13.20130 | 36964 ft | 471 kts | 169° |
| 2026-05-08 10:08 | 38.09970 | 13.22860 | 36955 ft | 471 kts | 169° |
| 2026-05-08 10:08 | 38.03771 | 13.25591 | 36957 ft | 469 kts | 169° |
| 2026-05-08 10:09 | 37.97628 | 13.28293 | 36956 ft | 470 kts | 169° |
| 2026-05-08 10:09 | 37.91456 | 13.31002 | 36970 ft | 470 kts | 169° |
| 2026-05-08 10:10 | 37.85280 | 13.33708 | 36967 ft | 469 kts | 169° |
| 2026-05-08 10:10 | 37.79103 | 13.36411 | 36960 ft | 468 kts | 169° |
| 2026-05-08 10:11 | 37.72943 | 13.39100 | 36974 ft | 468 kts | 169° |
| 2026-05-08 10:11 | 37.66828 | 13.41766 | 36961 ft | 465 kts | 169° |
| 2026-05-08 10:12 | 37.63753 | 13.43105 | 36779 ft | 458 kts | 169° |
| 2026-05-08 10:12 | 37.60788 | 13.44395 | 36442 ft | 453 kts | 169° |
| 2026-05-08 10:12 | 37.57825 | 13.45683 | 35956 ft | 450 kts | 169° |
| 2026-05-08 10:12 | 37.54865 | 13.46968 | 35421 ft | 448 kts | 169° |
| 2026-05-08 10:13 | 37.51924 | 13.48245 | 34951 ft | 446 kts | 169° |
| 2026-05-08 10:13 | 37.48987 | 13.49519 | 34468 ft | 443 kts | 170° |
| 2026-05-08 10:13 | 37.46074 | 13.50781 | 33996 ft | 441 kts | 170° |
| 2026-05-08 10:13 | 37.43182 | 13.52033 | 33441 ft | 439 kts | 170° |
| 2026-05-08 10:14 | 37.40301 | 13.53279 | 32945 ft | 436 kts | 170° |
| 2026-05-08 10:14 | 37.37474 | 13.54501 | 32488 ft | 432 kts | 170° |
| 2026-05-08 10:14 | 37.34649 | 13.55722 | 32204 ft | 423 kts | 170° |
| 2026-05-08 10:14 | 37.31895 | 13.56911 | 31933 ft | 416 kts | 170° |
| 2026-05-08 10:15 | 37.29138 | 13.58098 | 31097 ft | 424 kts | 170° |
| 2026-05-08 10:15 | 37.26311 | 13.59315 | 30223 ft | 434 kts | 170° |
| 2026-05-08 10:15 | 37.23419 | 13.60561 | 29229 ft | 442 kts | 169° |